Time;durP1;ratioP1;P1;durP2;ratioP2;P2;SDS_P1;SDS_P2;PMS_P1;PMS_P2;Temp;Humidity;BMP_temperature;BMP_pressure;BME280_temperature;BME280_humidity;BME280_pressure;Samples;Min_cycle;Max_cycle;Signal;HPM_P1;HPM_P2
2022/08/10 00:00:19;;;;;;;;;;;22.80;65.90;;;;;;5052942;28;19971;-49
2022/08/10 00:02:12;;;;;;;;;;;22.80;65.90;;;;;;5051959;28;19920;-47
2022/08/10 00:04:38;;;;;;;;;;;22.80;66.00;;;;;;5052656;28;20430;-48
2022/08/10 00:07:04;;;;;;;;;;;22.80;66.30;;;;;;5051737;28;19966;-51
2022/08/10 00:09:29;;;;;;;;;;;22.70;66.40;;;;;;5052379;28;20519;-51
2022/08/10 00:11:55;;;;;;;;;;;22.70;66.40;;;;;;5053449;28;19920;-51
2022/08/10 00:14:20;;;;;;;;;;;22.70;66.80;;;;;;5052660;28;19917;-50
2022/08/10 00:16:46;;;;;;;;;;;22.70;66.60;;;;;;5052382;28;19917;-48
2022/08/10 00:19:11;;;;;;;;;;;22.70;66.70;;;;;;5052244;28;20011;-49
2022/08/10 00:21:37;;;;;;;;;;;22.70;66.80;;;;;;5052036;28;19913;-47
2022/08/10 00:24:03;;;;;;;;;;;22.70;66.80;;;;;;5053378;28;20400;-49
2022/08/10 00:26:28;;;;;;;;;;;22.60;67.00;;;;;;5052140;28;19976;-54
2022/08/10 00:28:54;;;;;;;;;;;22.70;67.00;;;;;;5053159;28;20070;-48
2022/08/10 00:31:19;;;;;;;;;;;22.60;67.00;;;;;;5051980;28;19917;-49
2022/08/10 00:33:45;;;;;;;;;;;22.60;67.20;;;;;;5043476;28;19916;-51
2022/08/10 00:36:10;;;;;;;;;;;22.60;67.20;;;;;;5053984;28;20509;-52
2022/08/10 00:38:36;;;;;;;;;;;22.60;67.30;;;;;;5051401;28;20360;-53
2022/08/10 00:41:02;;;;;;;;;;;22.50;67.30;;;;;;5051458;28;20427;-50
2022/08/10 00:43:27;;;;;;;;;;;22.50;67.50;;;;;;5052447;28;19924;-49
2022/08/10 00:45:53;;;;;;;;;;;22.50;67.50;;;;;;5051670;28;19999;-49
2022/08/10 00:48:18;;;;;;;;;;;22.50;67.60;;;;;;5051228;28;19923;-47
2022/08/10 00:50:44;;;;;;;;;;;22.50;67.60;;;;;;5051718;28;19920;-51
2022/08/10 00:53:09;;;;;;;;;;;22.50;67.70;;;;;;5051253;28;19928;-51
2022/08/10 00:55:35;;;;;;;;;;;22.50;67.90;;;;;;5052150;28;20453;-49
2022/08/10 00:58:01;;;;;;;;;;;22.50;67.90;;;;;;5052193;28;20300;-49
2022/08/10 01:00:28;;;;;;;;;;;22.40;68.00;;;;;;5052324;28;20379;-50
2022/08/10 01:02:54;;;;;;;;;;;22.40;68.00;;;;;;5052858;28;19935;-48
2022/08/10 01:05:19;;;;;;;;;;;22.40;68.10;;;;;;5051648;28;20011;-47
2022/08/10 01:08:05;;;;;;;;;;;22.40;68.40;;;;;;5050276;28;20453;-50
2022/08/10 01:10:40;;;;;;;;;;;22.30;68.40;;;;;;5051262;28;19917;-51
2022/08/10 01:13:09;;;;;;;;;;;22.30;68.60;;;;;;5051402;28;19923;-50
2022/08/10 01:15:35;;;;;;;;;;;22.20;68.90;;;;;;5052926;28;19967;-48
2022/08/10 01:18:06;;;;;;;;;;;22.10;69.10;;;;;;5056822;28;20388;-49
2022/08/10 01:20:37;;;;;;;;;;;22.10;69.30;;;;;;5056115;28;19917;-53
2022/08/10 01:23:22;;;;;;;;;;;22.10;69.20;;;;;;5055801;28;19979;-52
2022/08/10 01:26:07;;;;;;;;;;;22.10;69.30;;;;;;5055665;28;19970;-50
2022/08/10 01:28:42;;;;;;;;;;;22.10;69.70;;;;;;5052584;28;19917;-53
2022/08/10 01:31:11;;;;;;;;;;;22.00;70.30;;;;;;5050519;28;19921;-47
2022/08/10 01:33:42;;;;;;;;;;;22.00;70.10;;;;;;5051641;28;19912;-49
2022/08/10 01:36:11;;;;;;;;;;;21.90;70.60;;;;;;5054671;28;19913;-52
2022/08/10 01:38:42;;;;;;;;;;;21.70;70.40;;;;;;5053796;28;19916;-52
2022/08/10 01:41:31;;;;;;;;;;;21.60;70.90;;;;;;5054928;28;19947;-50
2022/08/10 01:44:06;;;;;;;;;;;21.60;71.20;;;;;;5048375;28;19916;-48
2022/08/10 01:46:32;;;;;;;;;;;21.40;72.00;;;;;;5054985;28;19916;-50
2022/08/10 01:48:59;;;;;;;;;;;21.40;71.80;;;;;;5055133;28;19943;-48
2022/08/10 01:51:34;;;;;;;;;;;21.30;71.90;;;;;;5055343;28;19916;-48
2022/08/10 01:54:01;;;;;;;;;;;21.30;72.40;;;;;;5055498;28;19985;-48
2022/08/10 01:56:29;;;;;;;;;;;21.30;72.30;;;;;;5054049;28;19971;-50
2022/08/10 01:58:56;;;;;;;;;;;21.40;73.00;;;;;;5054927;28;20003;-49
2022/08/10 02:01:24;;;;;;;;;;;21.40;72.50;;;;;;5045688;28;19916;-51
2022/08/10 02:03:51;;;;;;;;;;;21.40;72.80;;;;;;5054545;28;19909;-48
2022/08/10 02:06:17;;;;;;;;;;;21.30;72.80;;;;;;5053986;28;19915;-49
2022/08/10 02:08:44;;;;;;;;;;;21.20;73.30;;;;;;5053775;28;19916;-49
2022/08/10 02:11:10;;;;;;;;;;;21.00;73.50;;;;;;5054060;28;19917;-48
2022/08/10 02:13:36;;;;;;;;;;;20.90;73.70;;;;;;5054311;28;19919;-49
2022/08/10 02:16:02;;;;;;;;;;;20.80;74.00;;;;;;5054724;28;19913;-49
2022/08/10 02:18:29;;;;;;;;;;;20.70;74.00;;;;;;5055347;28;19963;-48
2022/08/10 02:20:56;;;;;;;;;;;20.50;74.70;;;;;;5054353;28;19913;-51
2022/08/10 02:23:27;;;;;;;;;;;20.40;75.00;;;;;;5054907;28;19929;-49
2022/08/10 02:25:54;;;;;;;;;;;20.30;75.20;;;;;;5053853;28;19917;-49
2022/08/10 02:28:20;;;;;;;;;;;20.30;75.60;;;;;;5053924;28;19913;-48
2022/08/10 02:30:46;;;;;;;;;;;20.30;75.80;;;;;;5045684;28;19917;-51
2022/08/10 02:33:14;;;;;;;;;;;20.10;76.20;;;;;;5054248;28;20370;-51
2022/08/10 02:35:41;;;;;;;;;;;20.10;76.40;;;;;;5054783;28;20007;-50
2022/08/10 02:38:07;;;;;;;;;;;19.90;77.00;;;;;;5055101;28;19932;-50
2022/08/10 02:40:35;;;;;;;;;;;19.70;78.20;;;;;;5054989;28;19924;-49
2022/08/10 02:43:04;;;;;;;;;;;19.50;77.90;;;;;;5055660;28;19920;-49
2022/08/10 02:45:51;;;;;;;;;;;19.50;78.10;;;;;;5054532;28;20337;-53
2022/08/10 02:48:23;;;;;;;;;;;19.70;77.80;;;;;;5054719;28;19913;-53
2022/08/10 02:50:57;;;;;;;;;;;19.60;78.10;;;;;;5054873;28;20062;-47
2022/08/10 02:53:34;;;;;;;;;;;19.60;78.60;;;;;;5055296;28;19932;-49
2022/08/10 02:56:08;;;;;;;;;;;19.80;78.30;;;;;;5055469;28;20368;-48
2022/08/10 02:58:38;;;;;;;;;;;19.70;78.00;;;;;;5053025;28;20004;-51
2022/08/10 03:01:07;;;;;;;;;;;19.80;78.20;;;;;;5053577;28;19966;-48
2022/08/10 03:03:35;;;;;;;;;;;19.80;77.70;;;;;;5052935;28;19920;-53
2022/08/10 03:06:08;;;;;;;;;;;19.80;77.60;;;;;;5052154;28;20002;-51
2022/08/10 03:08:35;;;;;;;;;;;19.90;77.80;;;;;;5052678;28;19924;-48
2022/08/10 03:11:02;;;;;;;;;;;19.80;77.50;;;;;;5051877;28;19917;-50
2022/08/10 03:13:29;;;;;;;;;;;19.80;77.40;;;;;;5053300;28;19909;-49
2022/08/10 03:15:55;;;;;;;;;;;19.90;77.50;;;;;;5052861;28;20031;-49
2022/08/10 03:18:23;;;;;;;;;;;19.80;77.80;;;;;;5052968;28;20388;-50
2022/08/10 03:20:49;;;;;;;;;;;19.70;78.30;;;;;;5052832;28;20000;-52
2022/08/10 03:23:16;;;;;;;;;;;19.60;78.60;;;;;;5053414;28;20019;-52
2022/08/10 03:25:46;;;;;;;;;;;19.60;78.70;;;;;;5053324;28;19920;-48
2022/08/10 03:28:12;;;;;;;;;;;19.50;78.70;;;;;;5053440;28;19956;-50
2022/08/10 03:30:38;;;;;;;;;;;19.50;79.40;;;;;;5051796;28;20321;-47
2022/08/10 03:33:05;;;;;;;;;;;19.50;79.50;;;;;;5035263;28;19999;-51
2022/08/10 03:35:31;;;;;;;;;;;19.50;79.30;;;;;;5053602;28;19913;-48
2022/08/10 03:37:56;;;;;;;;;;;19.50;79.30;;;;;;5052463;28;19909;-49
2022/08/10 03:40:22;;;;;;;;;;;19.50;79.40;;;;;;5053086;28;19935;-52
2022/08/10 03:42:49;;;;;;;;;;;19.50;79.50;;;;;;5052726;28;19917;-51
2022/08/10 03:45:15;;;;;;;;;;;19.60;79.60;;;;;;5051660;28;19963;-55
2022/08/10 03:47:41;;;;;;;;;;;19.50;79.50;;;;;;5052756;28;20364;-51
2022/08/10 03:50:08;;;;;;;;;;;19.40;79.90;;;;;;5052099;28;19917;-49
2022/08/10 03:52:34;;;;;;;;;;;19.40;80.00;;;;;;5052330;28;19964;-50
2022/08/10 03:55:00;;;;;;;;;;;19.30;80.20;;;;;;5052159;28;19921;-47
2022/08/10 03:57:28;;;;;;;;;;;19.30;81.00;;;;;;5051124;28;19913;-47
2022/08/10 03:59:54;;;;;;;;;;;19.20;81.10;;;;;;5051965;28;19913;-48
2022/08/10 04:02:20;;;;;;;;;;;19.20;81.50;;;;;;5052386;28;19947;-48
2022/08/10 04:04:46;;;;;;;;;;;19.30;81.60;;;;;;5052398;28;20032;-51
2022/08/10 04:07:12;;;;;;;;;;;19.30;81.30;;;;;;5051582;28;19924;-50
2022/08/10 04:09:38;;;;;;;;;;;19.10;82.00;;;;;;5052235;28;19908;-47
2022/08/10 04:12:04;;;;;;;;;;;18.90;82.80;;;;;;5051463;28;19924;-51
2022/08/10 04:14:30;;;;;;;;;;;18.90;83.30;;;;;;5051518;28;19924;-48
2022/08/10 04:16:55;;;;;;;;;;;18.90;83.60;;;;;;5051191;28;19987;-50
2022/08/10 04:19:21;;;;;;;;;;;18.90;83.90;;;;;;5052727;28;19970;-49
2022/08/10 04:21:55;;;;;;;;;;;18.90;83.80;;;;;;5051532;28;20026;-51
2022/08/10 04:24:23;;;;;;;;;;;19.00;84.20;;;;;;5051541;28;20025;-48
2022/08/10 04:26:49;;;;;;;;;;;19.00;84.40;;;;;;5052394;28;20005;-53
2022/08/10 04:29:14;;;;;;;;;;;19.00;84.00;;;;;;5052574;28;19975;-49
2022/08/10 04:31:42;;;;;;;;;;;19.00;83.40;;;;;;5050059;28;19917;-51
2022/08/10 04:34:07;;;;;;;;;;;19.00;84.10;;;;;;5049764;28;20007;-54
2022/08/10 04:36:33;;;;;;;;;;;19.00;84.50;;;;;;5050012;28;19964;-50
2022/08/10 04:38:59;;;;;;;;;;;19.00;84.40;;;;;;5051691;28;19912;-49
2022/08/10 04:41:24;;;;;;;;;;;19.10;83.80;;;;;;5031962;28;20003;-50
2022/08/10 04:43:50;;;;;;;;;;;19.20;83.70;;;;;;5046461;28;19924;-50
2022/08/10 04:46:16;;;;;;;;;;;19.20;83.70;;;;;;5051402;28;20019;-50
2022/08/10 04:48:41;;;;;;;;;;;19.20;83.40;;;;;;5051389;28;19916;-48
2022/08/10 04:51:07;;;;;;;;;;;19.20;83.50;;;;;;5055745;28;19920;-53
2022/08/10 04:53:33;;;;;;;;;;;19.20;83.80;;;;;;5055509;28;19925;-53
2022/08/10 04:55:58;;;;;;;;;;;19.10;84.10;;;;;;5055717;28;19908;-53
2022/08/10 04:58:24;;;;;;;;;;;19.20;83.70;;;;;;5055346;28;19971;-49
2022/08/10 05:00:49;;;;;;;;;;;19.20;83.30;;;;;;5055034;28;19967;-50
2022/08/10 05:03:15;;;;;;;;;;;19.10;84.10;;;;;;5055180;28;19913;-50
2022/08/10 05:05:40;;;;;;;;;;;18.90;84.40;;;;;;5054570;28;20371;-54
2022/08/10 05:08:06;;;;;;;;;;;19.00;84.50;;;;;;5054659;28;20326;-49
2022/08/10 05:10:32;;;;;;;;;;;19.10;84.80;;;;;;5053781;28;20291;-52
2022/08/10 05:12:57;;;;;;;;;;;19.10;84.70;;;;;;5054927;28;20008;-51
2022/08/10 05:15:23;;;;;;;;;;;19.10;84.60;;;;;;5055893;28;19960;-52
2022/08/10 05:17:49;;;;;;;;;;;19.20;84.50;;;;;;5055262;28;19992;-51
2022/08/10 05:20:14;;;;;;;;;;;19.20;84.20;;;;;;5055676;28;19974;-48
2022/08/10 05:22:41;;;;;;;;;;;19.10;84.40;;;;;;5054541;28;20277;-48
2022/08/10 05:25:08;;;;;;;;;;;19.00;85.20;;;;;;5054749;28;19913;-51
2022/08/10 05:27:34;;;;;;;;;;;19.00;85.20;;;;;;5054409;28;19975;-51
2022/08/10 05:29:59;;;;;;;;;;;19.10;85.30;;;;;;5052001;28;19956;-50
2022/08/10 05:32:25;;;;;;;;;;;19.10;85.40;;;;;;5037144;28;19916;-51
2022/08/10 05:34:50;;;;;;;;;;;19.20;85.20;;;;;;5054325;28;19924;-51
2022/08/10 05:37:16;;;;;;;;;;;19.30;85.40;;;;;;5054241;28;19924;-50
2022/08/10 05:39:43;;;;;;;;;;;19.30;85.80;;;;;;5053922;28;20026;-51
2022/08/10 05:42:08;;;;;;;;;;;19.50;85.10;;;;;;5054608;28;19971;-51
2022/08/10 05:44:34;;;;;;;;;;;19.50;85.20;;;;;;5054900;28;19913;-49
2022/08/10 05:46:59;;;;;;;;;;;19.40;85.50;;;;;;5053868;28;20641;-50
2022/08/10 05:49:25;;;;;;;;;;;19.60;85.00;;;;;;5054708;28;20287;-52
2022/08/10 05:51:51;;;;;;;;;;;19.70;85.10;;;;;;5054186;28;20003;-52
2022/08/10 05:54:16;;;;;;;;;;;19.70;84.80;;;;;;5053885;28;20399;-47
2022/08/10 05:56:43;;;;;;;;;;;19.90;84.50;;;;;;5053882;28;20300;-50
2022/08/10 05:59:10;;;;;;;;;;;20.00;84.10;;;;;;5054588;28;19962;-53
2022/08/10 06:01:38;;;;;;;;;;;20.10;84.10;;;;;;5053672;28;19952;-52
2022/08/10 06:04:04;;;;;;;;;;;20.00;84.80;;;;;;5054214;28;20341;-52
2022/08/10 06:06:31;;;;;;;;;;;20.00;85.10;;;;;;5053613;28;19959;-52
2022/08/10 06:08:58;;;;;;;;;;;20.10;84.70;;;;;;5055414;28;19909;-50
2022/08/10 06:11:24;;;;;;;;;;;20.20;84.60;;;;;;5054246;28;19920;-50
2022/08/10 06:16:36;;;;;;;;;;;20.90;82.80;;;;;;5054333;28;19984;-52
2022/08/10 06:19:02;;;;;;;;;;;21.20;82.00;;;;;;5054863;28;19988;-50
2022/08/10 06:21:28;;;;;;;;;;;21.40;81.50;;;;;;5047049;28;19956;-51
2022/08/10 06:23:54;;;;;;;;;;;21.50;80.90;;;;;;5047958;28;20360;-50
2022/08/10 06:26:19;;;;;;;;;;;21.70;80.40;;;;;;5055113;28;19927;-48
2022/08/10 06:28:51;;;;;;;;;;;21.70;80.20;;;;;;5055439;28;19955;-50
2022/08/10 06:31:18;;;;;;;;;;;21.80;80.20;;;;;;5054855;28;19916;-49
2022/08/10 06:33:44;;;;;;;;;;;22.00;79.70;;;;;;5055128;28;19916;-48
2022/08/10 06:36:10;;;;;;;;;;;22.00;79.20;;;;;;5052630;28;19924;-50
2022/08/10 06:38:37;;;;;;;;;;;22.00;79.00;;;;;;5053632;28;19913;-50
2022/08/10 06:41:06;;;;;;;;;;;22.10;78.80;;;;;;5052262;28;19952;-49
2022/08/10 06:43:32;;;;;;;;;;;22.00;78.50;;;;;;5054801;28;20280;-53
2022/08/10 06:46:04;;;;;;;;;;;22.00;78.70;;;;;;5053819;28;19916;-50
2022/08/10 06:48:32;;;;;;;;;;;22.00;79.10;;;;;;5053279;28;19913;-52
2022/08/10 06:50:59;;;;;;;;;;;22.10;78.70;;;;;;5053843;28;20009;-50
2022/08/10 06:53:29;;;;;;;;;;;22.30;78.30;;;;;;5053863;28;19917;-51
2022/08/10 06:55:58;;;;;;;;;;;22.30;77.20;;;;;;5051532;28;20596;-51
2022/08/10 06:58:27;;;;;;;;;;;22.30;77.70;;;;;;5048384;28;19917;-50
2022/08/10 07:00:54;;;;;;;;;;;22.40;77.30;;;;;;5052377;28;19913;-49
2022/08/10 07:03:23;;;;;;;;;;;22.30;77.30;;;;;;5054130;28;19920;-52
2022/08/10 07:05:50;;;;;;;;;;;22.40;77.70;;;;;;5054381;28;20347;-51
2022/08/10 07:08:17;;;;;;;;;;;22.40;77.00;;;;;;5053162;28;20315;-49
2022/08/10 07:10:43;;;;;;;;;;;22.40;77.70;;;;;;5053310;28;19917;-49
2022/08/10 07:13:10;;;;;;;;;;;22.40;77.60;;;;;;5051981;28;19919;-48
2022/08/10 07:15:35;;;;;;;;;;;22.60;77.10;;;;;;5052624;28;19917;-52
2022/08/10 07:18:01;;;;;;;;;;;22.70;76.60;;;;;;5052205;28;19978;-51
2022/08/10 07:20:27;;;;;;;;;;;22.80;76.40;;;;;;5052071;28;20379;-51
2022/08/10 07:22:54;;;;;;;;;;;22.80;76.10;;;;;;5043697;28;20080;-48
2022/08/10 07:25:21;;;;;;;;;;;22.80;76.50;;;;;;5051223;28;19913;-50
2022/08/10 07:27:47;;;;;;;;;;;22.80;76.20;;;;;;5052243;28;20021;-50
2022/08/10 07:30:12;;;;;;;;;;;22.90;76.10;;;;;;5051698;28;19924;-54
2022/08/10 07:32:40;;;;;;;;;;;23.00;75.60;;;;;;5052285;28;19913;-52
2022/08/10 07:35:06;;;;;;;;;;;22.90;75.90;;;;;;5052943;28;19962;-49
2022/08/10 07:37:34;;;;;;;;;;;22.90;76.10;;;;;;5051911;28;19998;-52
2022/08/10 07:40:01;;;;;;;;;;;22.90;76.30;;;;;;5052427;28;19919;-52
2022/08/10 07:42:28;;;;;;;;;;;22.90;76.40;;;;;;5051962;28;19913;-48
2022/08/10 07:44:53;;;;;;;;;;;22.80;76.40;;;;;;5051950;28;20395;-49
2022/08/10 07:47:23;;;;;;;;;;;23.00;76.20;;;;;;5051554;28;19913;-51
2022/08/10 07:49:51;;;;;;;;;;;23.10;76.20;;;;;;5047912;28;19920;-48
2022/08/10 07:52:17;;;;;;;;;;;23.20;76.30;;;;;;5046593;28;19913;-48
2022/08/10 07:54:44;;;;;;;;;;;23.40;75.40;;;;;;5048503;28;19966;-50
2022/08/10 07:57:11;;;;;;;;;;;23.50;75.00;;;;;;5052066;28;19920;-50
2022/08/10 07:59:38;;;;;;;;;;;23.40;74.90;;;;;;5052504;28;20337;-50
2022/08/10 08:02:05;;;;;;;;;;;23.40;75.00;;;;;;5051831;28;19921;-52
2022/08/10 08:04:31;;;;;;;;;;;23.40;74.70;;;;;;5051033;28;19916;-49
2022/08/10 08:06:58;;;;;;;;;;;23.40;73.90;;;;;;5051605;28;19912;-50
2022/08/10 08:09:25;;;;;;;;;;;23.40;73.30;;;;;;5052291;28;19913;-49
2022/08/10 08:11:51;;;;;;;;;;;23.40;73.00;;;;;;5049465;28;19921;-50
2022/08/10 08:14:17;;;;;;;;;;;23.50;73.20;;;;;;5049739;28;19920;-50
2022/08/10 08:16:45;;;;;;;;;;;23.50;72.90;;;;;;5051138;28;19916;-49
2022/08/10 08:19:10;;;;;;;;;;;23.70;72.30;;;;;;5050908;28;19923;-49
2022/08/10 08:21:37;;;;;;;;;;;23.80;72.20;;;;;;5052438;28;20402;-50
2022/08/10 08:24:03;;;;;;;;;;;24.00;71.90;;;;;;5050406;28;19917;-54
2022/08/10 08:26:29;;;;;;;;;;;24.10;71.20;;;;;;5051487;28;20449;-51
2022/08/10 08:28:55;;;;;;;;;;;24.10;70.70;;;;;;5052573;28;19913;-50
2022/08/10 08:31:21;;;;;;;;;;;24.10;70.60;;;;;;5042909;28;19970;-52
2022/08/10 08:33:48;;;;;;;;;;;24.00;70.60;;;;;;5051515;28;19921;-51
2022/08/10 08:36:14;;;;;;;;;;;24.20;70.60;;;;;;5051186;28;19921;-48
2022/08/10 08:38:41;;;;;;;;;;;24.30;70.70;;;;;;5050742;28;19966;-54
2022/08/10 08:41:19;;;;;;;;;;;24.40;70.10;;;;;;5051071;28;19932;-51
2022/08/10 08:44:04;;;;;;;;;;;24.30;69.80;;;;;;5052574;28;19909;-50
2022/08/10 08:46:37;;;;;;;;;;;24.40;68.90;;;;;;5051870;28;19928;-52
2022/08/10 08:49:29;;;;;;;;;;;24.40;67.90;;;;;;5035665;28;20011;-50
2022/08/10 08:52:06;;;;;;;;;;;24.40;66.90;;;;;;5032398;28;19920;-52
2022/08/10 08:54:38;;;;;;;;;;;24.60;67.00;;;;;;5033253;28;20027;-50
2022/08/10 08:57:37;;;;;;;;;;;24.80;66.40;;;;;;5031973;28;19948;-52
2022/08/10 09:00:22;;;;;;;;;;;24.90;65.90;;;;;;5050530;28;20391;-54
2022/08/10 09:02:47;;;;;;;;;;;25.00;65.30;;;;;;5046680;28;20007;-49
2022/08/10 09:05:21;;;;;;;;;;;25.00;64.90;;;;;;5039060;28;19913;-50
2022/08/10 09:07:56;;;;;;;;;;;25.00;64.60;;;;;;5043312;28;19913;-51
2022/08/10 09:10:33;;;;;;;;;;;25.00;64.40;;;;;;5051824;28;20311;-48
2022/08/10 09:13:03;;;;;;;;;;;25.10;64.20;;;;;;5051122;28;19912;-53
2022/08/10 09:15:47;;;;;;;;;;;25.10;64.40;;;;;;5051726;28;19952;-53
2022/08/10 09:18:16;;;;;;;;;;;25.00;64.40;;;;;;5051229;28;20544;-51
2022/08/10 09:20:41;;;;;;;;;;;25.10;64.20;;;;;;5048942;28;19912;-54
2022/08/10 09:23:10;;;;;;;;;;;25.20;64.50;;;;;;5050957;28;19908;-54
2022/08/10 09:25:37;;;;;;;;;;;25.30;64.00;;;;;;5050922;28;19963;-52
2022/08/10 09:28:08;;;;;;;;;;;25.40;64.10;;;;;;5050813;28;20019;-52
2022/08/10 09:30:45;;;;;;;;;;;25.60;63.50;;;;;;5050629;28;20411;-50
2022/08/10 09:33:12;;;;;;;;;;;25.80;62.60;;;;;;5049832;28;19924;-51
2022/08/10 09:35:51;;;;;;;;;;;25.90;62.50;;;;;;5051022;28;19917;-50
2022/08/10 09:38:26;;;;;;;;;;;26.10;62.20;;;;;;5054842;28;20344;-47
2022/08/10 09:40:55;;;;;;;;;;;26.10;60.90;;;;;;5054836;28;19912;-52
2022/08/10 09:43:26;;;;;;;;;;;26.20;60.60;;;;;;5054524;28;19967;-50
2022/08/10 09:46:01;;;;;;;;;;;26.20;60.20;;;;;;5054645;28;19913;-53
2022/08/10 09:48:45;;;;;;;;;;;26.00;59.70;;;;;;5054766;28;19935;-49
2022/08/10 09:51:28;;;;;;;;;;;26.20;59.90;;;;;;5054124;28;20043;-52
2022/08/10 09:53:53;;;;;;;;;;;26.30;59.80;;;;;;5054396;28;19928;-49
2022/08/10 09:56:37;;;;;;;;;;;26.20;59.50;;;;;;5054877;28;19913;-49
2022/08/10 09:59:09;;;;;;;;;;;26.30;59.60;;;;;;5054866;28;19912;-52
2022/08/10 10:02:04;;;;;;;;;;;26.30;59.60;;;;;;5054829;28;20368;-48
2022/08/10 10:04:42;;;;;;;;;;;26.40;59.00;;;;;;5037733;28;19913;-50
2022/08/10 10:07:09;;;;;;;;;;;26.60;58.50;;;;;;5034207;28;19913;-51
2022/08/10 10:09:50;;;;;;;;;;;26.80;58.50;;;;;;5054279;28;19913;-51
2022/08/10 10:12:15;;;;;;;;;;;26.60;58.30;;;;;;5034110;28;19924;-50
2022/08/10 10:18:00;;;;;;;;;;;26.60;57.90;;;;;;5050038;28;19924;-51
2022/08/10 10:20:31;;;;;;;;;;;26.70;58.40;;;;;;5050873;28;19912;-51
2022/08/10 10:23:00;;;;;;;;;;;26.80;58.20;;;;;;5051218;28;19913;-54
2022/08/10 10:25:25;;;;;;;;;;;26.70;58.10;;;;;;5053754;28;20022;-54
2022/08/10 10:27:53;;;;;;;;;;;26.50;58.20;;;;;;5054283;28;19968;-51
2022/08/10 10:30:22;;;;;;;;;;;26.60;58.20;;;;;;5053114;28;20392;-54
2022/08/10 10:33:01;;;;;;;;;;;26.70;57.70;;;;;;5052637;28;19909;-53
2022/08/10 10:35:27;;;;;;;;;;;26.80;57.60;;;;;;5052227;28;20006;-52
2022/08/10 10:37:54;;;;;;;;;;;27.00;57.60;;;;;;5053141;28;20360;-51
2022/08/10 10:40:22;;;;;;;;;;;27.10;57.30;;;;;;5053462;28;20053;-51
2022/08/10 10:42:54;;;;;;;;;;;27.30;57.00;;;;;;5053969;28;19909;-54
2022/08/10 10:45:19;;;;;;;;;;;27.30;56.80;;;;;;5052844;28;19915;-56
2022/08/10 10:47:48;;;;;;;;;;;27.30;57.70;;;;;;5053338;28;20218;-54
2022/08/10 10:50:32;;;;;;;;;;;27.40;56.90;;;;;;5053486;28;19962;-51
2022/08/10 10:53:03;;;;;;;;;;;27.40;56.50;;;;;;5053601;28;19921;-51
2022/08/10 10:55:41;;;;;;;;;;;27.40;56.50;;;;;;5053834;28;19909;-50
2022/08/10 10:58:16;;;;;;;;;;;27.20;56.60;;;;;;5053107;28;20337;-49
2022/08/10 11:00:52;;;;;;;;;;;27.10;57.00;;;;;;5053189;28;19955;-49
2022/08/10 11:03:18;;;;;;;;;;;26.90;56.80;;;;;;5048576;28;19905;-52
2022/08/10 11:05:48;;;;;;;;;;;26.80;57.40;;;;;;5033186;28;20001;-56
2022/08/10 11:08:16;;;;;;;;;;;26.80;57.40;;;;;;5033080;28;19917;-51
2022/08/10 11:10:53;;;;;;;;;;;27.00;56.90;;;;;;5033299;28;20396;-53
2022/08/10 11:13:18;;;;;;;;;;;27.00;56.30;;;;;;5033208;28;19925;-51
2022/08/10 11:16:00;;;;;;;;;;;27.00;56.30;;;;;;5032722;28;20008;-49
2022/08/10 11:18:34;;;;;;;;;;;27.00;56.00;;;;;;5032989;28;19956;-52
2022/08/10 11:21:05;;;;;;;;;;;27.10;56.40;;;;;;5033434;28;20384;-49
2022/08/10 11:23:38;;;;;;;;;;;27.20;56.50;;;;;;5052029;28;19955;-49
2022/08/10 11:26:09;;;;;;;;;;;27.20;56.50;;;;;;5052408;28;20003;-49
2022/08/10 11:28:47;;;;;;;;;;;27.20;56.70;;;;;;5052336;28;19966;-51
2022/08/10 11:31:26;;;;;;;;;;;27.30;56.50;;;;;;5052588;28;19979;-49
2022/08/10 11:33:57;;;;;;;;;;;27.40;56.30;;;;;;5052496;28;19908;-50
2022/08/10 11:36:27;;;;;;;;;;;27.50;56.00;;;;;;5052199;28;19908;-50
2022/08/10 11:38:56;;;;;;;;;;;27.60;55.40;;;;;;5052419;28;19909;-52
2022/08/10 11:41:45;;;;;;;;;;;27.70;55.20;;;;;;5053085;28;20322;-50
2022/08/10 11:44:29;;;;;;;;;;;27.80;55.10;;;;;;5052924;28;19916;-52
2022/08/10 11:47:14;;;;;;;;;;;27.60;55.00;;;;;;5052467;28;20000;-50
2022/08/10 11:49:46;;;;;;;;;;;27.60;55.10;;;;;;5052794;28;19983;-48
2022/08/10 11:52:13;;;;;;;;;;;27.50;55.20;;;;;;5053183;28;19913;-55
2022/08/10 11:54:41;;;;;;;;;;;27.50;54.70;;;;;;5053614;28;19917;-51
2022/08/10 11:57:07;;;;;;;;;;;27.40;55.00;;;;;;5053077;28;19967;-53
2022/08/10 12:02:20;;;;;;;;;;;27.40;55.10;;;;;;5052365;28;19908;-52
2022/08/10 12:04:54;;;;;;;;;;;27.30;55.30;;;;;;5052316;28;20283;-52
2022/08/10 12:07:20;;;;;;;;;;;27.30;55.60;;;;;;5032244;28;19914;-50
2022/08/10 12:09:47;;;;;;;;;;;27.20;55.60;;;;;;5032436;28;19909;-48
2022/08/10 12:12:14;;;;;;;;;;;27.00;55.70;;;;;;5032416;28;20347;-53
2022/08/10 12:14:47;;;;;;;;;;;27.00;55.80;;;;;;5032986;28;20374;-54
2022/08/10 12:17:23;;;;;;;;;;;27.00;55.70;;;;;;5032022;28;19929;-50
2022/08/10 12:20:01;;;;;;;;;;;27.00;55.60;;;;;;5032536;28;19964;-52
2022/08/10 12:22:45;;;;;;;;;;;27.00;55.60;;;;;;5043175;28;19909;-47
2022/08/10 12:25:15;;;;;;;;;;;27.30;55.30;;;;;;5051968;28;19991;-49
2022/08/10 12:27:51;;;;;;;;;;;27.70;55.00;;;;;;5052491;28;20353;-48
2022/08/10 12:30:18;;;;;;;;;;;27.90;54.30;;;;;;5052102;28;19923;-53
2022/08/10 12:32:50;;;;;;;;;;;28.20;53.80;;;;;;5052229;28;19913;-53
2022/08/10 12:35:16;;;;;;;;;;;28.00;53.80;;;;;;5051078;28;19916;-54
2022/08/10 12:37:52;;;;;;;;;;;28.10;53.40;;;;;;5052698;28;19917;-50
2022/08/10 12:40:21;;;;;;;;;;;28.10;53.90;;;;;;5053079;28;20368;-48
2022/08/10 12:42:46;;;;;;;;;;;28.50;53.90;;;;;;5052679;28;19913;-51
2022/08/10 12:45:16;;;;;;;;;;;28.60;53.70;;;;;;5051792;28;19978;-51
2022/08/10 12:47:42;;;;;;;;;;;28.50;53.80;;;;;;5052866;28;19917;-52
2022/08/10 12:50:25;;;;;;;;;;;28.20;53.80;;;;;;5053208;28;19924;-53
2022/08/10 12:52:51;;;;;;;;;;;28.00;54.30;;;;;;5053029;28;19916;-53
2022/08/10 12:55:17;;;;;;;;;;;27.90;54.00;;;;;;5052943;28;19919;-49
2022/08/10 12:57:48;;;;;;;;;;;27.80;54.30;;;;;;5051697;28;20344;-50
2022/08/10 13:00:14;;;;;;;;;;;27.80;54.30;;;;;;5052137;28;20470;-49
2022/08/10 13:02:43;;;;;;;;;;;27.80;54.70;;;;;;5052202;28;19913;-49
2022/08/10 13:05:12;;;;;;;;;;;27.80;55.00;;;;;;5051241;28;20284;-53
2022/08/10 13:07:40;;;;;;;;;;;27.70;54.60;;;;;;5050630;28;19916;-52
2022/08/10 13:10:07;;;;;;;;;;;27.50;54.40;;;;;;5049088;28;19923;-51
2022/08/10 13:12:35;;;;;;;;;;;27.50;54.70;;;;;;5052685;28;19913;-51
2022/08/10 13:15:04;;;;;;;;;;;27.50;54.70;;;;;;5054661;28;19963;-48
2022/08/10 13:17:31;;;;;;;;;;;27.60;54.90;;;;;;5054471;28;19913;-49
2022/08/10 13:19:58;;;;;;;;;;;27.60;54.50;;;;;;5053666;28;20011;-48
2022/08/10 13:22:26;;;;;;;;;;;27.50;54.20;;;;;;5054356;28;20000;-52
2022/08/10 13:24:52;;;;;;;;;;;27.70;53.90;;;;;;5054574;28;19916;-50
2022/08/10 13:27:23;;;;;;;;;;;28.00;53.70;;;;;;5053760;28;19917;-50
2022/08/10 13:29:51;;;;;;;;;;;28.50;53.30;;;;;;5055618;28;20253;-51
2022/08/10 13:32:21;;;;;;;;;;;29.00;52.70;;;;;;5055994;28;20529;-50
2022/08/10 13:34:48;;;;;;;;;;;29.00;51.70;;;;;;5055214;28;20545;-53
2022/08/10 13:37:15;;;;;;;;;;;28.90;52.50;;;;;;5054464;28;19913;-50
2022/08/10 13:39:43;;;;;;;;;;;28.90;51.60;;;;;;5055629;28;19925;-50
2022/08/10 13:42:10;;;;;;;;;;;29.20;51.60;;;;;;5054716;28;19917;-51
2022/08/10 13:44:44;;;;;;;;;;;29.60;52.00;;;;;;5055319;28;19913;-53
2022/08/10 13:47:10;;;;;;;;;;;29.90;50.70;;;;;;5054847;28;19909;-51
2022/08/10 13:49:45;;;;;;;;;;;30.30;52.60;;;;;;5054564;28;19923;-51
2022/08/10 13:52:15;;;;;;;;;;;30.70;51.00;;;;;;5053293;28;19917;-52
2022/08/10 13:54:41;;;;;;;;;;;31.10;50.40;;;;;;5052408;28;19916;-52
2022/08/10 13:57:07;;;;;;;;;;;31.30;50.30;;;;;;5053054;28;19972;-56
2022/08/10 13:59:33;;;;;;;;;;;31.40;49.00;;;;;;5053721;28;19999;-51
2022/08/10 14:02:00;;;;;;;;;;;31.70;50.20;;;;;;5053225;28;19913;-49
2022/08/10 14:04:26;;;;;;;;;;;31.40;48.70;;;;;;5048038;28;20369;-51
2022/08/10 14:06:53;;;;;;;;;;;31.10;49.40;;;;;;5033911;28;19920;-54
2022/08/10 14:09:23;;;;;;;;;;;30.80;49.40;;;;;;5033713;28;19968;-51
2022/08/10 14:11:49;;;;;;;;;;;30.30;50.00;;;;;;5033426;28;19913;-53
2022/08/10 14:14:19;;;;;;;;;;;30.40;50.40;;;;;;5033745;28;19916;-54
2022/08/10 14:16:46;;;;;;;;;;;30.00;50.40;;;;;;5034067;28;19909;-50
2022/08/10 14:19:17;;;;;;;;;;;29.80;50.40;;;;;;5034176;28;19914;-52
2022/08/10 14:21:43;;;;;;;;;;;29.90;50.30;;;;;;5038727;28;19913;-50
2022/08/10 14:24:18;;;;;;;;;;;30.00;50.40;;;;;;5053704;28;19940;-49
2022/08/10 14:26:45;;;;;;;;;;;30.10;49.60;;;;;;5054013;28;19917;-51
2022/08/10 14:29:12;;;;;;;;;;;30.30;49.90;;;;;;5055164;28;19963;-52
2022/08/10 14:31:39;;;;;;;;;;;30.20;49.40;;;;;;5054520;28;19913;-50
2022/08/10 14:34:09;;;;;;;;;;;30.20;49.60;;;;;;5052855;28;19915;-52